This is the latest recevied weather packets stored in our database for station/object DH0DM-13. If no packets are shown the sender has not sent any weather packets the latest 10 day(s).
| Time | Temp. | Humidity | Pressure | Rain* | Wind** | Luminosity | Snow |
|---|---|---|---|---|---|---|---|
| 1787931286 | 21.11° C | 85% | 983.8 hPa | 4.57 mm | 8.05 m/s, 110° | - | - |
| 1787930685 | 21.11° C | 85% | 984.9 hPa | 4.57 mm | 2.68 m/s, 157° | - | - |
| 1787930084 | 21.11° C | 86% | 985 hPa | 4.57 mm | 2.24 m/s, 97° | - | - |
| 1787929483 | 21.11° C | 86% | 985.1 hPa | 4.57 mm | 6.26 m/s, 57° | - | - |
| 1787928883 | 21.11° C | 86% | 985.5 hPa | 4.57 mm | 0 m/s | - | - |
| 1787928281 | 21.11° C | 85% | 985.6 hPa | 4.57 mm | 1.79 m/s, 89° | - | - |
| 1787927680 | 21.67° C | 83% | 985.9 hPa | 4.57 mm | 0.89 m/s, 176° | - | - |
| 1787927080 | 21.67° C | 84% | 986.1 hPa | 4.57 mm | 1.79 m/s, 103° | - | - |
| 1787926479 | 21.67° C | 86% | 986.4 hPa | 4.57 mm | 0 m/s | - | - |
| 1787925878 | 21.67° C | 86% | 986.1 hPa | 4.57 mm | 0 m/s | - | - |
| 1787925277 | 21.67° C | 86% | 986.2 hPa | 4.57 mm | 0.45 m/s, 266° | - | - |
| 1787924676 | 21.67° C | 86% | 986.9 hPa | 4.57 mm | 1.34 m/s, 247° | - | - |
| 1787924075 | 21.67° C | 86% | 986.6 hPa | 4.57 mm | 4.02 m/s, 251° | - | - |
| 1787923474 | 21.11° C | 91% | 986.1 hPa | 4.57 mm | 1.79 m/s, 249° | - | - |
| 1787922874 | 20° C | 90% | 986.6 hPa | 4.57 mm | 0 m/s | - | - |
| 1787922272 | 20° C | 89% | 987.4 hPa | 4.32 mm | 0 m/s | - | - |
| 1787921672 | 20° C | 86% | 987.9 hPa | 3.81 mm | 6.26 m/s, 182° | - | - |
| 1787921071 | 20.56° C | 82% | 987.8 hPa | 2.29 mm | 4.02 m/s, 211° | - | - |
| 1787920470 | 23.89° C | 66% | 987.4 hPa | 0 mm | 11.62 m/s, 300° | - | - |
| 1787919869 | 23.89° C | 62% | 984.9 hPa | 0 mm | 2.68 m/s, 320° | - | - |
| 1787919268 | 23.89° C | 61% | 984.6 hPa | 0 mm | 1.34 m/s, 111° | - | - |
| 1787918667 | 23.89° C | 60% | 984.5 hPa | 0 mm | 10.28 m/s, 209° | - | - |
| 1787918066 | 23.89° C | 61% | 984.4 hPa | 0 mm | 2.24 m/s, 293° | - | - |
| 1787917465 | 23.89° C | 60% | 984.1 hPa | 0 mm | 8.49 m/s, 114° | - | - |
| 1787916864 | 23.89° C | 61% | 983.7 hPa | 0 mm | 2.68 m/s, 196° | - | - |
* Rain since midnight (hover to see other rain measurements)
** Current wind speed in m/s (hover to see current wind gust speed)